Time;durP1;ratioP1;P1;durP2;ratioP2;P2;SDS_P1;SDS_P2;PMS_P1;PMS_P2;Temp;Humidity;BMP_temperature;BMP_pressure;BME280_temperature;BME280_humidity;BME280_pressure;Samples;Min_cycle;Max_cycle;Signal;HPM_P1;HPM_P2
2023/06/12 00:01:39;;;;;;;7.90;7.20;;;20.50;84.30;;;;;;4973340;28;20234;-65
2023/06/12 00:04:05;;;;;;;8.27;7.60;;;20.50;84.20;;;;;;4974844;28;20658;-65
2023/06/12 00:06:32;;;;;;;7.30;6.70;;;20.40;84.30;;;;;;4971946;28;20467;-65
2023/06/12 00:08:58;;;;;;;6.73;6.23;;;20.40;84.10;;;;;;4964517;28;20491;-65
2023/06/12 00:11:24;;;;;;;8.27;7.47;;;20.40;84.20;;;;;;4970446;28;20525;-65
2023/06/12 00:13:50;;;;;;;7.67;6.97;;;20.30;84.40;;;;;;4973654;28;20208;-65
2023/06/12 00:16:16;;;;;;;7.40;6.90;;;20.30;83.80;;;;;;4972408;28;20282;-65
2023/06/12 00:18:42;;;;;;;7.43;6.80;;;20.30;84.50;;;;;;4974860;28;20168;-65
2023/06/12 00:21:09;;;;;;;8.03;7.33;;;20.30;85.40;;;;;;4971481;28;20444;-65
2023/06/12 00:23:38;;;;;;;7.10;6.50;;;20.30;84.70;;;;;;4966023;28;20209;-65
2023/06/12 00:26:04;;;;;;;7.87;7.17;;;20.30;84.50;;;;;;4972464;28;20443;-65
2023/06/12 00:28:30;;;;;;;7.20;6.60;;;20.30;84.40;;;;;;4972346;28;20440;-65
2023/06/12 00:30:56;;;;;;;8.10;7.40;;;20.30;84.80;;;;;;4955080;28;20180;-65
2023/06/12 00:33:21;;;;;;;7.80;7.20;;;20.30;84.80;;;;;;4972777;28;20550;-65
2023/06/12 00:35:47;;;;;;;7.03;6.43;;;20.30;84.60;;;;;;4977938;28;20600;-65
2023/06/12 00:38:16;;;;;;;7.83;7.33;;;20.20;85.10;;;;;;4966684;28;20249;-65
2023/06/12 00:40:42;;;;;;;10.53;7.50;;;20.20;85.30;;;;;;4972309;28;20443;-65
2023/06/12 00:43:11;;;;;;;7.57;7.00;;;20.00;86.00;;;;;;4973053;28;20510;-65
2023/06/12 00:45:36;;;;;;;7.87;7.27;;;19.90;86.60;;;;;;4973010;28;20187;-65
2023/06/12 00:48:02;;;;;;;8.23;7.73;;;19.80;87.10;;;;;;4971600;28;20443;-65
2023/06/12 00:50:28;;;;;;;8.13;7.53;;;19.80;87.80;;;;;;4972064;28;20275;-65
2023/06/12 00:52:56;;;;;;;9.00;8.23;;;19.70;88.30;;;;;;4968856;28;21017;-65
2023/06/12 00:55:22;;;;;;;8.00;7.40;;;19.80;88.50;;;;;;4972605;28;20188;-65
2023/06/12 00:57:48;;;;;;;8.63;7.80;;;19.80;88.60;;;;;;4973743;28;20443;-65
2023/06/12 01:00:17;;;;;;;10.73;7.67;;;19.80;88.70;;;;;;4972963;28;20490;-65
2023/06/12 01:02:45;;;;;;;6.60;6.10;;;19.80;89.10;;;;;;4973871;28;20451;-65
2023/06/12 01:05:13;;;;;;;8.70;8.07;;;19.80;89.70;;;;;;4968833;28;20436;-65
2023/06/12 01:07:50;;;;;;;7.80;7.20;;;19.70;90.30;;;;;;4963671;28;20440;-65
2023/06/12 01:10:20;;;;;;;7.83;7.30;;;19.50;91.00;;;;;;4971907;28;20539;-65
2023/06/12 01:12:46;;;;;;;8.80;8.10;;;19.40;92.70;;;;;;4971321;28;20479;-65
2023/06/12 01:15:14;;;;;;;7.70;7.13;;;19.30;92.70;;;;;;4973598;28;20431;-65
2023/06/12 01:17:42;;;;;;;7.83;7.17;;;19.20;93.20;;;;;;4973880;28;20446;-65
2023/06/12 01:20:13;;;;;;;9.03;8.40;;;19.10;93.20;;;;;;4974489;28;20571;-65
2023/06/12 01:22:54;;;;;;;8.93;8.23;;;19.10;93.30;;;;;;4975245;28;21024;-65
2023/06/12 01:25:35;;;;;;;8.43;7.83;;;19.00;95.40;;;;;;4969655;28;20936;-65
2023/06/12 01:28:22;;;;;;;8.07;7.37;;;18.90;96.30;;;;;;4969976;28;20442;-65
2023/06/12 01:30:57;;;;;;;8.03;7.40;;;18.80;95.80;;;;;;4973115;28;20435;-65
2023/06/12 01:33:33;;;;;;;8.00;7.40;;;18.70;96.20;;;;;;4972526;28;21156;-65
2023/06/12 01:36:00;;;;;;;9.13;8.43;;;18.60;98.70;;;;;;4966480;28;21048;-65
2023/06/12 01:38:28;;;;;;;8.27;7.63;;;18.60;99.80;;;;;;4972597;28;20443;-65
2023/06/12 01:40:55;;;;;;;8.10;7.50;;;18.50;99.90;;;;;;4972938;28;20431;-65
2023/06/12 01:43:24;;;;;;;9.20;8.33;;;18.50;99.90;;;;;;4974612;28;20518;-65
2023/06/12 01:45:49;;;;;;;7.97;7.47;;;18.40;99.90;;;;;;4971932;28;20441;-65
2023/06/12 01:48:16;;;;;;;8.00;7.40;;;18.40;99.90;;;;;;4971603;28;20461;-65
2023/06/12 01:50:42;;;;;;;8.17;7.40;;;18.40;99.90;;;;;;4970118;28;20226;-65
2023/06/12 01:53:10;;;;;;;8.97;8.30;;;18.30;99.90;;;;;;4973630;28;20512;-65
2023/06/12 01:55:36;;;;;;;9.60;8.80;;;18.20;99.90;;;;;;4965283;28;20459;-65
2023/06/12 01:58:01;;;;;;;7.97;7.37;;;18.10;99.90;;;;;;4958724;28;20436;-65
2023/06/12 02:00:27;;;;;;;8.87;8.07;;;18.10;99.90;;;;;;4968662;28;20497;-65
2023/06/12 02:02:56;;;;;;;8.90;8.20;;;18.00;99.90;;;;;;4968927;28;20196;-65
2023/06/12 02:05:22;;;;;;;7.90;7.40;;;17.90;99.90;;;;;;4958568;28;20181;-65
2023/06/12 02:07:48;;;;;;;7.40;6.90;;;17.80;99.90;;;;;;4970193;28;20435;-65
2023/06/12 02:10:15;;;;;;;11.07;7.67;;;17.80;99.90;;;;;;4969462;28;20462;-65
2023/06/12 02:12:40;;;;;;;8.83;8.13;;;17.80;99.90;;;;;;4962791;28;21095;-65
2023/06/12 02:15:07;;;;;;;7.67;7.07;;;17.80;99.90;;;;;;4972673;28;20522;-65
2023/06/12 02:17:32;;;;;;;8.07;7.37;;;17.70;99.90;;;;;;4970725;28;20180;-65
2023/06/12 02:19:58;;;;;;;8.93;8.17;;;17.60;99.90;;;;;;4971297;28;20490;-65
2023/06/12 02:22:23;;;;;;;8.43;7.80;;;17.60;99.90;;;;;;4971854;28;20211;-65
2023/06/12 02:24:50;;;;;;;7.47;6.90;;;17.60;99.90;;;;;;4972402;28;20177;-65
2023/06/12 02:27:15;;;;;;;8.03;7.33;;;17.60;99.90;;;;;;4971508;28;20732;-65
2023/06/12 02:29:41;;;;;;;9.07;8.40;;;17.60;99.90;;;;;;4970003;28;20446;-65
2023/06/12 02:32:06;;;;;;;8.77;8.17;;;17.50;99.90;;;;;;4970949;28;20223;-65
2023/06/12 02:34:32;;;;;;;7.73;7.23;;;17.30;99.90;;;;;;4972463;28;20195;-65
2023/06/12 02:36:58;;;;;;;8.97;8.13;;;17.30;99.90;;;;;;4969508;28;20222;-65
2023/06/12 02:39:23;;;;;;;9.03;8.33;;;17.20;99.90;;;;;;4968057;28;20239;-65
2023/06/12 02:41:49;;;;;;;8.13;7.47;;;17.20;99.90;;;;;;4948956;28;20176;-65
2023/06/12 02:44:15;;;;;;;9.00;8.30;;;17.10;99.90;;;;;;4971148;28;20188;-65
2023/06/12 02:46:58;;;;;;;9.73;8.37;;;17.10;99.90;;;;;;4971628;28;20431;-65
2023/06/12 02:49:25;;;;;;;8.30;7.70;;;17.00;99.90;;;;;;4966230;28;20222;-65
2023/06/12 02:51:51;;;;;;;8.27;7.67;;;16.90;99.90;;;;;;4969995;28;20459;-65
2023/06/12 02:54:18;;;;;;;9.57;8.77;;;16.80;99.90;;;;;;4970208;28;20991;-65
2023/06/12 02:56:45;;;;;;;9.83;8.97;;;16.70;99.90;;;;;;4967205;28;20648;-65
2023/06/12 02:59:14;;;;;;;9.83;9.13;;;16.70;99.90;;;;;;4968925;28;20447;-65
2023/06/12 03:01:43;;;;;;;9.77;9.07;;;16.70;99.90;;;;;;4972677;28;20443;-65
2023/06/12 03:04:12;;;;;;;9.90;9.10;;;16.70;99.90;;;;;;4975017;28;20431;-65
2023/06/12 03:06:39;;;;;;;9.00;8.40;;;16.70;99.90;;;;;;4974884;28;20448;-65
2023/06/12 03:09:08;;;;;;;9.73;8.90;;;16.60;99.90;;;;;;4973391;28;20896;-65
2023/06/12 03:11:35;;;;;;;8.47;7.77;;;16.50;99.90;;;;;;4969630;28;20474;-65
2023/06/12 03:14:00;;;;;;;8.67;8.07;;;16.50;99.90;;;;;;4976022;28;20443;-65
2023/06/12 03:16:26;;;;;;;9.83;9.13;;;16.40;99.90;;;;;;4976011;28;20964;-65
2023/06/12 03:18:51;;;;;;;9.37;8.63;;;16.40;99.90;;;;;;4976000;28;20176;-65
2023/06/12 03:21:17;;;;;;;9.07;8.23;;;16.30;99.90;;;;;;4974602;28;20184;-65
2023/06/12 03:23:42;;;;;;;9.20;8.50;;;16.30;99.90;;;;;;4976320;28;20215;-65
2023/06/12 03:26:08;;;;;;;9.10;8.30;;;16.20;99.90;;;;;;4975964;28;20229;-65
2023/06/12 03:28:34;;;;;;;9.13;8.23;;;16.20;99.90;;;;;;4974682;28;20231;-65
2023/06/12 03:31:00;;;;;;;8.90;8.07;;;16.20;99.90;;;;;;4976076;28;20180;-65
2023/06/12 03:33:26;;;;;;;8.43;7.73;;;16.10;99.90;;;;;;4974207;28;20978;-65
2023/06/12 03:35:51;;;;;;;8.73;7.97;;;16.10;99.90;;;;;;4976837;28;20199;-65
2023/06/12 03:38:17;;;;;;;9.00;8.20;;;16.10;99.90;;;;;;4975578;28;20447;-65
2023/06/12 03:40:42;;;;;;;8.40;7.80;;;16.20;99.90;;;;;;4975620;28;20638;-65
2023/06/12 03:43:08;;;;;;;8.37;7.77;;;16.30;99.90;;;;;;4975325;28;20196;-65
2023/06/12 03:45:33;;;;;;;8.60;7.90;;;16.30;99.90;;;;;;4974694;28;20265;-65
2023/06/12 03:47:59;;;;;;;8.43;7.73;;;16.40;99.90;;;;;;4975367;28;20195;-65
2023/06/12 03:50:25;;;;;;;9.10;8.40;;;16.50;99.90;;;;;;4972724;28;20196;-65
2023/06/12 03:52:50;;;;;;;10.67;9.63;;;16.60;99.90;;;;;;4970101;28;20662;-65
2023/06/12 03:55:16;;;;;;;8.10;7.50;;;16.60;99.90;;;;;;4972291;28;20189;-65
2023/06/12 03:57:41;;;;;;;9.87;9.07;;;16.60;99.90;;;;;;4979585;28;20204;-65
2023/06/12 04:00:08;;;;;;;9.20;8.50;;;16.60;99.90;;;;;;4974402;28;20184;-65
2023/06/12 04:02:34;;;;;;;9.20;8.30;;;16.70;99.90;;;;;;4974843;28;20287;-65
2023/06/12 04:05:00;;;;;;;9.60;8.90;;;16.70;99.90;;;;;;4974737;28;20427;-65
2023/06/12 04:07:26;;;;;;;9.97;9.23;;;16.80;99.90;;;;;;4981655;28;20648;-65
2023/06/12 04:09:51;;;;;;;10.67;9.77;;;16.80;99.90;;;;;;4970463;28;20447;-65
2023/06/12 04:12:17;;;;;;;9.23;8.63;;;16.90;99.90;;;;;;4968216;28;20197;-65
2023/06/12 04:14:42;;;;;;;9.67;8.97;;;16.80;99.90;;;;;;4972584;28;20188;-65
2023/06/12 04:17:08;;;;;;;9.00;8.37;;;16.90;99.90;;;;;;4973840;28;20208;-65
2023/06/12 04:19:35;;;;;;;9.20;8.40;;;17.10;99.90;;;;;;4973680;28;20531;-65
2023/06/12 04:22:01;;;;;;;9.43;8.73;;;17.30;99.90;;;;;;4972192;28;20705;-65
2023/06/12 04:24:30;;;;;;;9.70;8.93;;;17.40;99.90;;;;;;4965161;28;21212;-65
2023/06/12 04:27:08;;;;;;;10.60;9.70;;;17.50;99.90;;;;;;4974063;28;20444;-65
2023/06/12 04:29:37;;;;;;;10.50;9.40;;;17.70;99.90;;;;;;4971687;28;20518;-65
2023/06/12 04:32:05;;;;;;;9.50;8.80;;;17.70;99.90;;;;;;4972311;28;20549;-65
2023/06/12 04:34:30;;;;;;;10.50;9.60;;;17.80;99.90;;;;;;4973567;28;20442;-65
2023/06/12 04:36:56;;;;;;;9.83;9.13;;;17.90;99.90;;;;;;4973139;28;20467;-65
2023/06/12 04:39:23;;;;;;;9.27;8.10;;;18.10;99.90;;;;;;4980127;28;20183;-65
2023/06/12 04:41:51;;;;;;;8.90;8.30;;;18.10;99.90;;;;;;4970519;28;20203;-65
2023/06/12 04:44:17;;;;;;;10.03;9.33;;;18.20;99.90;;;;;;4963238;28;20436;-65
2023/06/12 04:46:43;;;;;;;9.43;8.70;;;18.20;99.90;;;;;;4971833;28;20435;-65
2023/06/12 04:49:08;;;;;;;10.03;9.13;;;18.40;99.90;;;;;;4973258;28;20447;-65
2023/06/12 04:51:35;;;;;;;9.73;8.83;;;18.70;99.90;;;;;;4972577;28;20203;-65
2023/06/12 04:54:01;;;;;;;10.50;9.60;;;18.90;99.90;;;;;;4972643;28;20526;-65
2023/06/12 04:56:27;;;;;;;10.30;9.30;;;19.10;99.90;;;;;;4976157;28;20474;-65
2023/06/12 04:58:53;;;;;;;9.10;8.50;;;19.20;99.90;;;;;;4961423;28;20716;-66
2023/06/12 05:01:19;;;;;;;11.63;10.67;;;19.40;99.90;;;;;;4972679;28;20427;-67
2023/06/12 05:03:46;;;;;;;11.07;9.97;;;19.60;99.90;;;;;;4961774;28;20682;-64
2023/06/12 05:06:11;;;;;;;10.23;9.47;;;19.80;99.90;;;;;;4970565;28;20447;-64
2023/06/12 05:08:37;;;;;;;11.07;10.13;;;19.80;99.90;;;;;;4973314;28;20431;-64
2023/06/12 05:11:05;;;;;;;9.50;8.60;;;19.90;99.90;;;;;;4973342;28;20545;-64
2023/06/12 05:13:31;;;;;;;9.83;9.03;;;20.10;99.90;;;;;;4972643;28;20215;-64
2023/06/12 05:15:57;;;;;;;10.00;9.13;;;20.20;99.90;;;;;;4970863;28;20503;-64
2023/06/12 05:18:22;;;;;;;9.90;9.10;;;20.20;99.90;;;;;;4970253;28;20435;-64
2023/06/12 05:20:48;;;;;;;9.33;8.63;;;20.30;99.90;;;;;;4976415;28;20172;-63
2023/06/12 05:23:14;;;;;;;10.67;9.87;;;20.50;99.90;;;;;;4997927;23;20302;-66
2023/06/12 05:25:41;;;;;;;9.40;8.50;;;20.50;99.90;;;;;;4991773;28;20661;-67
2023/06/12 05:28:06;;;;;;;9.87;9.07;;;20.50;99.90;;;;;;4992427;28;20442;-70
2023/06/12 05:30:31;;;;;;;8.97;8.27;;;20.60;99.90;;;;;;4991364;28;20195;-71
2023/06/12 05:32:58;;;;;;;10.30;9.20;;;20.80;99.90;;;;;;4996818;28;20200;-71
2023/06/12 05:35:23;;;;;;;8.30;7.70;;;21.00;99.90;;;;;;4974494;28;20181;-71
2023/06/12 05:37:49;;;;;;;10.13;9.33;;;21.10;99.90;;;;;;4974405;28;20431;-71
2023/06/12 05:40:14;;;;;;;8.53;7.83;;;21.30;99.90;;;;;;4974113;28;20179;-71
2023/06/12 05:42:40;;;;;;;9.30;8.70;;;21.50;99.90;;;;;;4974173;28;20212;-71
2023/06/12 05:45:06;;;;;;;10.10;9.23;;;21.60;99.90;;;;;;4978531;28;20176;-71
2023/06/12 05:47:33;;;;;;;9.37;8.67;;;21.70;99.90;;;;;;4993232;28;20184;-71
2023/06/12 05:49:59;;;;;;;9.93;8.93;;;21.80;99.90;;;;;;4973710;28;20438;-71
2023/06/12 05:52:25;;;;;;;9.97;9.27;;;21.90;99.90;;;;;;4973857;28;20505;-71
2023/06/12 05:54:50;;;;;;;9.57;8.83;;;21.90;99.90;;;;;;4981368;28;20506;-71
2023/06/12 05:57:16;;;;;;;10.63;9.03;;;21.90;99.90;;;;;;4993237;28;20245;-71
2023/06/12 05:59:43;;;;;;;9.77;9.07;;;22.00;99.90;;;;;;4993520;28;20257;-71
2023/06/12 06:02:09;;;;;;;8.90;8.20;;;22.10;99.90;;;;;;4991546;28;20917;-71
2023/06/12 06:04:34;;;;;;;9.87;9.17;;;22.20;99.90;;;;;;4994936;28;20430;-71
2023/06/12 06:07:00;;;;;;;10.50;9.43;;;22.30;99.90;;;;;;4973893;28;20183;-71
2023/06/12 06:09:27;;;;;;;9.37;8.50;;;22.30;99.90;;;;;;4973444;28;20589;-71
2023/06/12 06:11:53;;;;;;;9.23;8.40;;;22.50;99.90;;;;;;4973685;28;20415;-71
2023/06/12 06:14:19;;;;;;;10.23;9.43;;;22.70;99.90;;;;;;4956133;28;20447;-71
2023/06/12 06:16:44;;;;;;;15.50;9.33;;;22.80;99.90;;;;;;4987257;28;20469;-71
2023/06/12 06:19:10;;;;;;;9.07;8.30;;;22.80;99.90;;;;;;4987078;28;20634;-71
2023/06/12 06:21:36;;;;;;;9.87;9.17;;;22.90;99.90;;;;;;4973426;28;20172;-71
2023/06/12 06:24:01;;;;;;;8.87;8.17;;;23.00;99.90;;;;;;4973396;28;20200;-71
2023/06/12 06:26:27;;;;;;;10.10;9.20;;;22.90;99.90;;;;;;4973422;28;20576;-71
2023/06/12 06:28:53;;;;;;;9.50;8.70;;;22.70;99.90;;;;;;4973045;28;20184;-71
2023/06/12 06:31:19;;;;;;;9.57;8.83;;;22.90;99.90;;;;;;4973525;28;20180;-71
2023/06/12 06:33:45;;;;;;;9.00;8.30;;;23.00;99.90;;;;;;4987812;28;20203;-71
2023/06/12 06:36:10;;;;;;;9.03;8.27;;;23.10;99.90;;;;;;4978787;28;20466;-71
2023/06/12 06:38:36;;;;;;;8.97;8.20;;;23.20;99.90;;;;;;4972963;28;20180;-71
2023/06/12 06:41:02;;;;;;;10.37;9.47;;;23.10;99.90;;;;;;4978287;28;20212;-71
2023/06/12 06:43:27;;;;;;;9.77;8.40;;;23.10;99.90;;;;;;4978181;28;20620;-71
2023/06/12 06:45:53;;;;;;;8.70;8.10;;;23.20;99.90;;;;;;4982721;28;20522;-69
2023/06/12 06:48:18;;;;;;;9.40;7.57;;;23.30;99.90;;;;;;4995051;28;20273;-70
2023/06/12 06:50:44;;;;;;;9.40;8.60;;;23.40;99.90;;;;;;4991832;28;20202;-69
2023/06/12 06:53:10;;;;;;;10.03;9.33;;;23.50;99.60;;;;;;4973159;28;20216;-69
2023/06/12 06:55:35;;;;;;;8.33;7.83;;;23.60;99.50;;;;;;4973125;28;20176;-69
2023/06/12 06:58:02;;;;;;;9.43;8.63;;;23.50;99.60;;;;;;4972925;28;20173;-69
2023/06/12 07:00:27;;;;;;;9.20;8.53;;;23.60;99.50;;;;;;4972940;28;20168;-70
2023/06/12 07:02:53;;;;;;;9.90;9.10;;;23.80;98.90;;;;;;4973201;28;20514;-71
2023/06/12 07:05:20;;;;;;;9.00;8.40;;;24.00;98.60;;;;;;4983402;28;20215;-70
2023/06/12 07:07:48;;;;;;;8.33;7.63;;;24.00;98.40;;;;;;4982224;28;20534;-70
2023/06/12 07:10:13;;;;;;;9.50;8.70;;;24.20;97.10;;;;;;4972832;28;20420;-71
2023/06/12 07:12:39;;;;;;;9.67;8.97;;;24.30;96.60;;;;;;4972845;28;20821;-70
2023/06/12 07:15:06;;;;;;;9.17;8.37;;;24.20;96.10;;;;;;4973236;28;20172;-71
2023/06/12 07:17:32;;;;;;;9.23;8.40;;;23.80;96.40;;;;;;4972644;28;20465;-70
2023/06/12 07:19:58;;;;;;;9.17;8.40;;;23.70;97.40;;;;;;4987906;28;20522;-71
2023/06/12 07:22:23;;;;;;;8.43;7.83;;;23.70;97.80;;;;;;4992031;28;20191;-70
2023/06/12 07:24:49;;;;;;;8.93;8.00;;;24.00;97.10;;;;;;4992169;28;20573;-70
2023/06/12 07:27:14;;;;;;;9.40;8.50;;;23.90;96.60;;;;;;4992170;28;20263;-70
2023/06/12 07:29:40;;;;;;;8.83;8.13;;;24.10;96.20;;;;;;4991861;28;20191;-70
2023/06/12 07:32:06;;;;;;;8.53;7.60;;;24.40;96.20;;;;;;4992370;28;20211;-70
2023/06/12 07:34:31;;;;;;;8.27;7.63;;;24.40;94.60;;;;;;4992219;28;20182;-70
2023/06/12 07:37:00;;;;;;;8.57;7.97;;;24.60;94.80;;;;;;4990581;28;20469;-70
2023/06/12 07:39:26;;;;;;;8.63;8.10;;;24.70;93.90;;;;;;4988700;28;20430;-70
2023/06/12 07:41:52;;;;;;;8.43;7.83;;;24.80;93.70;;;;;;4991719;28;20482;-70
2023/06/12 07:44:17;;;;;;;8.70;7.90;;;24.80;94.00;;;;;;4991863;28;20244;-71
2023/06/12 07:46:43;;;;;;;8.10;7.50;;;24.90;94.20;;;;;;4991969;28;20182;-70
2023/06/12 07:49:09;;;;;;;9.80;9.00;;;25.10;93.40;;;;;;4994203;28;20560;-70
2023/06/12 07:51:35;;;;;;;8.37;7.70;;;25.20;92.80;;;;;;5006430;28;20230;-70
2023/06/12 07:54:00;;;;;;;8.60;7.90;;;25.00;92.70;;;;;;5003505;28;20195;-70
2023/06/12 07:56:27;;;;;;;9.00;8.40;;;25.20;92.20;;;;;;4987540;28;20508;-70
2023/06/12 07:58:52;;;;;;;8.60;7.90;;;25.10;92.60;;;;;;4975847;28;20180;-70
2023/06/12 08:01:18;;;;;;;9.10;8.07;;;25.10;92.60;;;;;;4976044;28;20540;-70
2023/06/12 08:03:45;;;;;;;8.37;7.70;;;25.40;92.20;;;;;;4975880;28;20676;-70
2023/06/12 08:06:12;;;;;;;8.97;8.27;;;25.60;91.40;;;;;;4984932;28;20442;-70
2023/06/12 08:08:45;;;;;;;8.10;7.43;;;25.80;91.20;;;;;;4985759;28;20432;-70
2023/06/12 08:11:11;;;;;;;7.93;7.13;;;26.00;90.40;;;;;;4975616;28;20462;-70
2023/06/12 08:13:37;;;;;;;9.30;8.13;;;26.10;90.30;;;;;;4975767;28;20439;-70
2023/06/12 08:16:03;;;;;;;10.97;7.97;;;26.40;89.00;;;;;;4975809;28;20832;-70
2023/06/12 08:18:28;;;;;;;8.63;7.60;;;26.40;86.80;;;;;;4975432;28;20176;-70
2023/06/12 08:20:54;;;;;;;7.67;7.17;;;26.10;86.10;;;;;;4975607;28;20172;-70
2023/06/12 08:23:20;;;;;;;8.83;7.80;;;26.20;82.80;;;;;;4991294;28;20222;-70
2023/06/12 08:25:46;;;;;;;8.30;7.60;;;26.30;81.70;;;;;;4994761;28;20960;-70
2023/06/12 08:28:12;;;;;;;8.40;7.70;;;26.50;82.60;;;;;;4994906;28;20223;-70
2023/06/12 08:30:37;;;;;;;8.30;7.70;;;26.00;83.80;;;;;;4994900;28;20175;-70
2023/06/12 08:33:03;;;;;;;8.23;7.63;;;25.90;80.90;;;;;;4994920;28;20815;-70
2023/06/12 08:35:29;;;;;;;9.53;8.60;;;26.00;81.30;;;;;;4994962;28;20183;-70
2023/06/12 08:37:55;;;;;;;8.57;7.87;;;26.20;79.30;;;;;;4994117;28;20167;-70
2023/06/12 08:40:21;;;;;;;8.60;7.90;;;26.30;79.00;;;;;;4994079;28;20545;-70
2023/06/12 08:42:51;;;;;;;7.43;6.93;;;26.30;76.20;;;;;;4976009;28;20892;-70
2023/06/12 08:45:18;;;;;;;8.43;7.83;;;25.90;75.00;;;;;;4975253;28;20468;-70
2023/06/12 08:47:47;;;;;;;8.80;8.10;;;25.80;75.80;;;;;;4975030;28;20515;-70
2023/06/12 08:50:16;;;;;;;7.63;7.13;;;25.70;76.00;;;;;;4973972;28;20427;-70
2023/06/12 08:52:42;;;;;;;8.90;8.20;;;26.00;76.10;;;;;;4972977;28;20446;-69
2023/06/12 08:55:09;;;;;;;7.93;7.33;;;26.40;72.80;;;;;;4978704;28;20485;-69
2023/06/12 08:57:38;;;;;;;7.90;7.40;;;26.30;74.20;;;;;;4994165;28;20492;-70
2023/06/12 09:00:10;;;;;;;8.53;7.73;;;25.80;75.40;;;;;;4974390;28;20430;-70
2023/06/12 09:02:35;;;;;;;7.90;7.40;;;26.20;75.80;;;;;;4974828;28;20443;-69
2023/06/12 09:05:06;;;;;;;9.73;8.80;;;26.70;75.90;;;;;;4974755;28;20426;-70
2023/06/12 09:07:35;;;;;;;9.33;7.83;;;26.90;75.10;;;;;;4974687;28;20565;-69
2023/06/12 09:10:01;;;;;;;8.80;8.10;;;27.00;73.70;;;;;;4974555;28;20444;-70
2023/06/12 09:12:29;;;;;;;8.00;7.50;;;27.00;73.40;;;;;;4990993;28;20556;-70
2023/06/12 09:14:55;;;;;;;8.30;7.67;;;27.20;73.40;;;;;;4988986;28;20680;-70
2023/06/12 09:17:26;;;;;;;10.57;8.37;;;27.30;72.90;;;;;;4978918;28;20467;-70
2023/06/12 09:19:51;;;;;;;8.33;7.83;;;27.50;72.60;;;;;;4974147;28;20180;-70
2023/06/12 09:22:17;;;;;;;8.33;7.83;;;27.70;72.70;;;;;;4974319;28;21215;-70
2023/06/12 09:24:43;;;;;;;8.80;8.30;;;28.00;70.20;;;;;;4974303;28;20172;-70
2023/06/12 09:27:08;;;;;;;8.93;8.27;;;28.10;69.00;;;;;;4974384;28;20239;-70
2023/06/12 09:29:39;;;;;;;8.80;8.10;;;28.20;65.70;;;;;;4990872;28;20183;-70
2023/06/12 09:32:07;;;;;;;8.40;7.67;;;27.90;66.60;;;;;;4980809;28;20173;-70
2023/06/12 09:34:34;;;;;;;7.83;7.17;;;27.70;67.60;;;;;;4974144;28;20842;-70
2023/06/12 09:37:03;;;;;;;7.97;7.43;;;27.90;66.80;;;;;;4974101;28;20462;-70
2023/06/12 09:39:30;;;;;;;7.87;7.37;;;28.00;65.10;;;;;;4973848;28;21063;-70
2023/06/12 09:41:56;;;;;;;7.53;7.03;;;28.10;63.70;;;;;;4973998;28;20947;-71
2023/06/12 09:44:24;;;;;;;7.27;6.77;;;28.30;62.90;;;;;;4975717;28;20458;-70
2023/06/12 09:46:50;;;;;;;8.00;7.40;;;28.00;61.60;;;;;;4999172;28;20533;-70
2023/06/12 09:49:22;;;;;;;8.10;7.50;;;27.90;61.90;;;;;;4992205;28;20931;-69
2023/06/12 09:51:50;;;;;;;7.57;6.97;;;28.40;60.70;;;;;;4991827;28;20457;-70
2023/06/12 09:54:17;;;;;;;10.20;8.17;;;28.60;58.90;;;;;;4982962;28;20915;-70
2023/06/12 09:56:44;;;;;;;8.30;7.53;;;28.90;59.20;;;;;;4993045;28;20512;-67
2023/06/12 09:59:18;;;;;;;11.63;8.77;;;28.80;58.10;;;;;;4973632;28;20419;-70
2023/06/12 10:01:48;;;;;;;8.60;7.80;;;28.70;58.50;;;;;;4978732;28;20446;-68
2023/06/12 10:04:24;;;;;;;8.93;8.10;;;29.00;59.00;;;;;;4978802;28;20497;-70
2023/06/12 10:06:52;;;;;;;9.63;8.43;;;30.00;57.80;;;;;;4968560;28;20420;-67
2023/06/12 10:09:18;;;;;;;8.50;8.00;;;31.20;56.60;;;;;;4979246;28;20419;-67
2023/06/12 10:11:45;;;;;;;7.87;7.30;;;31.80;54.80;;;;;;4991851;28;20449;-67
2023/06/12 10:14:11;;;;;;;9.40;8.70;;;32.40;53.50;;;;;;4992307;28;20451;-68
2023/06/12 10:16:38;;;;;;;8.27;7.77;;;32.90;51.60;;;;;;4991719;28;20463;-67
2023/06/12 10:19:04;;;;;;;8.77;8.17;;;32.60;51.20;;;;;;4991932;28;20434;-68
2023/06/12 10:21:31;;;;;;;8.57;8.07;;;33.20;49.60;;;;;;4992652;28;20418;-69
2023/06/12 10:23:58;;;;;;;8.37;7.77;;;32.40;49.80;;;;;;4992786;28;20529;-68
2023/06/12 10:26:24;;;;;;;8.10;7.50;;;32.80;49.20;;;;;;4992768;28;20426;-69
2023/06/12 10:28:49;;;;;;;7.90;7.37;;;33.20;48.70;;;;;;4992514;28;20438;-69
2023/06/12 10:31:18;;;;;;;8.07;7.37;;;34.30;47.20;;;;;;4992710;28;20426;-69
2023/06/12 10:34:04;;;;;;;8.23;7.53;;;34.50;45.70;;;;;;4983310;28;20203;-69
2023/06/12 10:36:55;;;;;;;7.83;7.30;;;35.10;44.40;;;;;;4976687;28;20456;-68
2023/06/12 10:39:24;;;;;;;8.70;8.10;;;36.20;43.50;;;;;;4968352;28;20965;-69
2023/06/12 10:41:57;;;;;;;7.27;6.87;;;37.20;41.50;;;;;;4973220;28;20416;-70
2023/06/12 10:44:42;;;;;;;7.73;7.30;;;37.60;39.60;;;;;;4973178;28;20415;-69
2023/06/12 10:47:19;;;;;;;7.30;6.80;;;37.60;38.90;;;;;;4973120;28;20821;-70
2023/06/12 10:50:05;;;;;;;7.47;6.97;;;37.50;38.10;;;;;;4990805;28;20436;-67
2023/06/12 10:52:31;;;;;;;8.17;7.57;;;36.20;38.40;;;;;;4985191;28;20929;-67
2023/06/12 10:55:22;;;;;;;7.53;6.83;;;36.00;38.10;;;;;;4992437;28;20413;-68
2023/06/12 10:57:55;;;;;;;7.60;7.00;;;36.30;37.50;;;;;;4992201;28;20209;-68
2023/06/12 11:00:32;;;;;;;6.80;6.40;;;36.60;37.00;;;;;;4992223;28;20494;-68
2023/06/12 11:03:00;;;;;;;6.70;6.20;;;36.90;36.60;;;;;;4993507;28;20560;-67
2023/06/12 11:05:27;;;;;;;8.10;7.50;;;37.60;35.90;;;;;;4996144;28;20423;-68
2023/06/12 11:08:06;;;;;;;6.80;6.40;;;37.90;35.70;;;;;;4973093;28;20824;-68
2023/06/12 11:10:33;;;;;;;8.37;7.60;;;37.90;33.90;;;;;;4972311;28;20798;-68
2023/06/12 11:12:59;;;;;;;6.77;6.37;;;37.50;34.40;;;;;;4972958;28;20448;-68
2023/06/12 11:15:25;;;;;;;7.00;6.60;;;37.40;34.70;;;;;;4972922;28;20423;-68
2023/06/12 11:17:51;;;;;;;7.23;6.73;;;38.70;34.90;;;;;;4972817;28;20463;-68
2023/06/12 11:20:19;;;;;;;7.53;6.87;;;38.20;34.10;;;;;;4993163;28;20188;-68
2023/06/12 11:22:48;;;;;;;9.03;7.30;;;36.90;34.50;;;;;;4983682;28;20232;-67
2023/06/12 11:25:16;;;;;;;7.07;6.60;;;35.70;35.70;;;;;;4976915;28;20419;-68
2023/06/12 11:27:43;;;;;;;7.80;7.20;;;36.90;34.90;;;;;;4976704;28;20423;-68
2023/06/12 11:30:09;;;;;;;8.30;7.60;;;38.40;33.60;;;;;;4976299;28;20419;-68
2023/06/12 11:32:34;;;;;;;7.13;6.70;;;38.70;33.70;;;;;;4976670;28;20443;-67
2023/06/12 11:35:02;;;;;;;8.37;7.67;;;39.30;33.00;;;;;;4976497;28;20419;-68
2023/06/12 11:37:28;;;;;;;10.80;7.50;;;39.60;32.40;;;;;;4995622;28;20203;-67
2023/06/12 11:40:06;;;;;;;7.00;6.50;;;39.50;32.90;;;;;;4976180;28;20423;-67
2023/06/12 11:42:31;;;;;;;8.10;7.50;;;39.10;32.80;;;;;;4976403;28;20238;-67
2023/06/12 11:44:57;;;;;;;7.67;7.03;;;38.50;32.50;;;;;;4985223;28;20962;-67
2023/06/12 11:47:23;;;;;;;6.80;6.30;;;39.10;32.10;;;;;;4983954;28;20200;-67
2023/06/12 11:49:48;;;;;;;7.97;7.37;;;37.10;32.40;;;;;;4994580;28;20190;-67
2023/06/12 11:52:14;;;;;;;8.23;7.53;;;35.80;33.80;;;;;;4995355;28;20179;-68
2023/06/12 11:55:03;;;;;;;7.90;7.30;;;37.20;33.80;;;;;;4991995;28;20182;-68
2023/06/12 11:57:30;;;;;;;8.27;7.57;;;37.80;32.50;;;;;;4976109;28;20470;-67
2023/06/12 11:59:56;;;;;;;7.83;7.33;;;38.50;32.50;;;;;;4975925;28;20900;-67
2023/06/12 12:02:34;;;;;;;7.50;6.93;;;39.10;31.50;;;;;;4978787;28;20454;-67
2023/06/12 12:05:04;;;;;;;7.57;7.17;;;40.20;31.10;;;;;;4988154;28;20426;-67
2023/06/12 12:07:31;;;;;;;6.40;5.83;;;39.90;30.30;;;;;;4996998;28;20431;-68
2023/06/12 12:10:10;;;;;;;7.37;6.87;;;38.00;31.70;;;;;;4975249;28;20442;-67
2023/06/12 12:12:49;;;;;;;7.83;7.30;;;39.60;31.10;;;;;;4975759;28;20447;-68
2023/06/12 12:15:15;;;;;;;7.37;6.87;;;40.80;30.00;;;;;;4976132;28;20423;-68
2023/06/12 12:17:42;;;;;;;7.50;6.77;;;41.10;30.00;;;;;;4988396;28;20572;-67
2023/06/12 12:20:13;;;;;;;7.00;6.03;;;41.10;29.50;;;;;;4981699;28;20514;-67
2023/06/12 12:22:45;;;;;;;7.63;7.13;;;39.20;30.00;;;;;;4975619;28;20478;-67
2023/06/12 12:25:23;;;;;;;7.43;6.73;;;38.50;30.40;;;;;;4975657;28;20431;-68
2023/06/12 12:27:51;;;;;;;8.07;7.47;;;37.00;31.10;;;;;;4975664;28;20888;-67
2023/06/12 12:30:17;;;;;;;7.30;6.77;;;36.50;31.60;;;;;;4976431;28;20423;-67
2023/06/12 12:32:48;;;;;;;7.20;6.70;;;37.90;31.50;;;;;;4993988;28;20446;-67
2023/06/12 12:35:17;;;;;;;6.87;6.30;;;39.10;30.70;;;;;;4975643;28;20420;-67
2023/06/12 12:37:44;;;;;;;7.13;6.50;;;40.20;29.90;;;;;;4975357;28;20491;-67
2023/06/12 12:40:10;;;;;;;7.23;6.53;;;41.20;29.50;;;;;;4975238;28;20428;-67
2023/06/12 12:42:49;;;;;;;6.70;6.30;;;41.70;29.70;;;;;;4975322;28;20531;-67
2023/06/12 12:45:16;;;;;;;7.47;6.93;;;41.40;29.70;;;;;;4975408;28;20793;-68
2023/06/12 12:47:52;;;;;;;7.03;6.53;;;41.30;29.50;;;;;;4987128;28;20506;-67